sensor_id;sensor_type;location;lat;lon;timestamp;temperature;humidity
76838;DHT22;65797;47.352;8.164;2023-04-01T00:00:44;7.40;99.90
76838;DHT22;65797;47.352;8.164;2023-04-01T00:03:11;7.40;99.90
76838;DHT22;65797;47.352;8.164;2023-04-01T00:05:37;7.50;99.90
76838;DHT22;65797;47.352;8.164;2023-04-01T00:08:03;7.50;99.90
76838;DHT22;65797;47.352;8.164;2023-04-01T00:10:29;7.50;99.90
76838;DHT22;65797;47.352;8.164;2023-04-01T00:12:54;7.50;99.90
76838;DHT22;65797;47.352;8.164;2023-04-01T00:15:20;7.50;99.90
76838;DHT22;65797;47.352;8.164;2023-04-01T00:17:46;7.40;99.90
76838;DHT22;65797;47.352;8.164;2023-04-01T00:20:12;7.40;99.90
76838;DHT22;65797;47.352;8.164;2023-04-01T00:22:40;7.40;99.90
76838;DHT22;65797;47.352;8.164;2023-04-01T00:25:06;7.40;99.90
76838;DHT22;65797;47.352;8.164;2023-04-01T00:27:32;7.50;99.90
76838;DHT22;65797;47.352;8.164;2023-04-01T00:29:58;7.50;99.90
76838;DHT22;65797;47.352;8.164;2023-04-01T00:32:24;7.50;99.90
76838;DHT22;65797;47.352;8.164;2023-04-01T00:34:51;7.50;99.90
76838;DHT22;65797;47.352;8.164;2023-04-01T00:37:18;7.40;97.60
76838;DHT22;65797;47.352;8.164;2023-04-01T00:39:44;7.50;16.60
76838;DHT22;65797;47.352;8.164;2023-04-01T00:42:11;7.50;1.00
76838;DHT22;65797;47.352;8.164;2023-04-01T00:44:38;7.50;1.00
76838;DHT22;65797;47.352;8.164;2023-04-01T00:47:04;7.40;8.90
76838;DHT22;65797;47.352;8.164;2023-04-01T00:49:33;7.40;37.20
76838;DHT22;65797;47.352;8.164;2023-04-01T00:52:04;7.40;58.20
76838;DHT22;65797;47.352;8.164;2023-04-01T00:54:32;7.40;38.60
76838;DHT22;65797;47.352;8.164;2023-04-01T00:57:03;7.40;99.90
76838;DHT22;65797;47.352;8.164;2023-04-01T00:59:37;7.30;99.90
76838;DHT22;65797;47.352;8.164;2023-04-01T01:02:07;7.30;99.90
76838;DHT22;65797;47.352;8.164;2023-04-01T01:04:35;7.30;99.90
76838;DHT22;65797;47.352;8.164;2023-04-01T01:12:48;7.30;99.90
76838;DHT22;65797;47.352;8.164;2023-04-01T01:15:26;7.30;99.90
76838;DHT22;65797;47.352;8.164;2023-04-01T01:24:10;7.30;99.90
76838;DHT22;65797;47.352;8.164;2023-04-01T01:37:59;7.20;99.90
76838;DHT22;65797;47.352;8.164;2023-04-01T01:40:27;7.20;99.90
76838;DHT22;65797;47.352;8.164;2023-04-01T01:42:58;7.20;99.90
76838;DHT22;65797;47.352;8.164;2023-04-01T01:45:26;7.20;99.90
76838;DHT22;65797;47.352;8.164;2023-04-01T01:47:53;7.30;99.90
76838;DHT22;65797;47.352;8.164;2023-04-01T01:50:21;7.20;98.10
76838;DHT22;65797;47.352;8.164;2023-04-01T01:52:48;7.30;99.90
76838;DHT22;65797;47.352;8.164;2023-04-01T01:55:33;7.30;75.40
76838;DHT22;65797;47.352;8.164;2023-04-01T02:00:58;7.30;99.90
76838;DHT22;65797;47.352;8.164;2023-04-01T02:03:28;7.30;21.40
76838;DHT22;65797;47.352;8.164;2023-04-01T02:05:57;7.30;37.60
76838;DHT22;65797;47.352;8.164;2023-04-01T02:08:36;7.20;1.00
76838;DHT22;65797;47.352;8.164;2023-04-01T02:11:09;7.30;1.00
76838;DHT22;65797;47.352;8.164;2023-04-01T02:13:55;7.20;1.00
76838;DHT22;65797;47.352;8.164;2023-04-01T02:16:29;7.20;6.80
76838;DHT22;65797;47.352;8.164;2023-04-01T02:18:58;7.20;34.90
76838;DHT22;65797;47.352;8.164;2023-04-01T02:21:28;7.20;86.00
76838;DHT22;65797;47.352;8.164;2023-04-01T02:23:56;7.20;99.90
76838;DHT22;65797;47.352;8.164;2023-04-01T02:26:24;7.20;99.90
76838;DHT22;65797;47.352;8.164;2023-04-01T02:28:53;7.10;99.90
76838;DHT22;65797;47.352;8.164;2023-04-01T02:31:20;7.10;99.90
76838;DHT22;65797;47.352;8.164;2023-04-01T02:33:47;7.00;99.90
76838;DHT22;65797;47.352;8.164;2023-04-01T02:36:14;7.10;99.90
76838;DHT22;65797;47.352;8.164;2023-04-01T02:38:41;7.10;99.90
76838;DHT22;65797;47.352;8.164;2023-04-01T02:41:09;7.00;99.90
76838;DHT22;65797;47.352;8.164;2023-04-01T02:43:34;7.00;99.90
76838;DHT22;65797;47.352;8.164;2023-04-01T02:46:00;7.00;99.90
76838;DHT22;65797;47.352;8.164;2023-04-01T02:48:27;7.00;99.90
76838;DHT22;65797;47.352;8.164;2023-04-01T02:50:53;7.00;99.90
76838;DHT22;65797;47.352;8.164;2023-04-01T02:53:19;7.00;99.90
76838;DHT22;65797;47.352;8.164;2023-04-01T02:55:45;6.90;99.90
76838;DHT22;65797;47.352;8.164;2023-04-01T02:58:11;6.90;99.90
76838;DHT22;65797;47.352;8.164;2023-04-01T03:00:37;6.90;99.90
76838;DHT22;65797;47.352;8.164;2023-04-01T03:03:03;6.90;99.90
76838;DHT22;65797;47.352;8.164;2023-04-01T03:05:29;6.90;99.90
76838;DHT22;65797;47.352;8.164;2023-04-01T03:07:55;6.90;99.90
76838;DHT22;65797;47.352;8.164;2023-04-01T03:10:21;6.90;99.90
76838;DHT22;65797;47.352;8.164;2023-04-01T03:12:47;6.90;99.90
76838;DHT22;65797;47.352;8.164;2023-04-01T03:15:13;6.90;99.90
76838;DHT22;65797;47.352;8.164;2023-04-01T03:17:41;6.80;99.90
76838;DHT22;65797;47.352;8.164;2023-04-01T03:20:07;6.80;99.90
76838;DHT22;65797;47.352;8.164;2023-04-01T03:22:34;6.80;99.90
76838;DHT22;65797;47.352;8.164;2023-04-01T03:25:01;6.80;99.90
76838;DHT22;65797;47.352;8.164;2023-04-01T03:27:27;6.80;99.90
76838;DHT22;65797;47.352;8.164;2023-04-01T03:29:52;6.80;99.90
76838;DHT22;65797;47.352;8.164;2023-04-01T03:32:18;6.80;99.90
76838;DHT22;65797;47.352;8.164;2023-04-01T03:34:44;6.80;78.60
76838;DHT22;65797;47.352;8.164;2023-04-01T03:37:10;6.80;97.40
76838;DHT22;65797;47.352;8.164;2023-04-01T03:39:35;6.90;19.80
76838;DHT22;65797;47.352;8.164;2023-04-01T03:42:01;6.90;3.60
76838;DHT22;65797;47.352;8.164;2023-04-01T03:44:31;7.00;1.00
76838;DHT22;65797;47.352;8.164;2023-04-01T03:46:57;7.00;1.00
76838;DHT22;65797;47.352;8.164;2023-04-01T03:49:23;7.00;1.00
76838;DHT22;65797;47.352;8.164;2023-04-01T03:51:49;6.90;1.00
76838;DHT22;65797;47.352;8.164;2023-04-01T03:54:14;7.00;1.00
76838;DHT22;65797;47.352;8.164;2023-04-01T03:56:41;7.00;1.00
76838;DHT22;65797;47.352;8.164;2023-04-01T03:59:07;7.00;1.00
76838;DHT22;65797;47.352;8.164;2023-04-01T04:01:33;7.10;1.00
76838;DHT22;65797;47.352;8.164;2023-04-01T04:03:59;7.10;1.00
76838;DHT22;65797;47.352;8.164;2023-04-01T04:06:26;7.10;1.00
76838;DHT22;65797;47.352;8.164;2023-04-01T04:08:52;7.10;1.00
76838;DHT22;65797;47.352;8.164;2023-04-01T04:11:19;7.10;1.00
76838;DHT22;65797;47.352;8.164;2023-04-01T04:13:45;7.10;1.00
76838;DHT22;65797;47.352;8.164;2023-04-01T04:16:13;7.10;1.00
76838;DHT22;65797;47.352;8.164;2023-04-01T04:18:39;7.10;1.50
76838;DHT22;65797;47.352;8.164;2023-04-01T04:21:05;7.00;99.90
76838;DHT22;65797;47.352;8.164;2023-04-01T04:23:32;7.00;99.90
76838;DHT22;65797;47.352;8.164;2023-04-01T04:26:07;6.90;99.90
76838;DHT22;65797;47.352;8.164;2023-04-01T04:28:34;6.80;99.90
76838;DHT22;65797;47.352;8.164;2023-04-01T04:31:00;6.80;99.90
76838;DHT22;65797;47.352;8.164;2023-04-01T04:33:26;6.70;99.90
76838;DHT22;65797;47.352;8.164;2023-04-01T04:35:55;6.70;99.90
76838;DHT22;65797;47.352;8.164;2023-04-01T04:38:21;6.60;99.90
76838;DHT22;65797;47.352;8.164;2023-04-01T04:40:47;6.60;99.90
76838;DHT22;65797;47.352;8.164;2023-04-01T04:43:14;6.60;99.90
76838;DHT22;65797;47.352;8.164;2023-04-01T04:45:41;6.60;99.90
76838;DHT22;65797;47.352;8.164;2023-04-01T04:48:14;6.50;1.00
76838;DHT22;65797;47.352;8.164;2023-04-01T04:50:44;6.50;99.90
76838;DHT22;65797;47.352;8.164;2023-04-01T04:53:12;6.50;1.00
76838;DHT22;65797;47.352;8.164;2023-04-01T04:55:42;6.50;1.00
76838;DHT22;65797;47.352;8.164;2023-04-01T04:58:08;6.40;1.00
76838;DHT22;65797;47.352;8.164;2023-04-01T05:00:33;6.50;1.00
76838;DHT22;65797;47.352;8.164;2023-04-01T05:02:59;6.50;1.00
76838;DHT22;65797;47.352;8.164;2023-04-01T05:05:25;6.40;1.00
76838;DHT22;65797;47.352;8.164;2023-04-01T05:07:51;6.50;1.00
76838;DHT22;65797;47.352;8.164;2023-04-01T05:10:16;6.50;1.00
76838;DHT22;65797;47.352;8.164;2023-04-01T05:12:42;6.40;1.00
76838;DHT22;65797;47.352;8.164;2023-04-01T05:15:08;6.50;1.00
76838;DHT22;65797;47.352;8.164;2023-04-01T05:17:34;6.40;72.00
76838;DHT22;65797;47.352;8.164;2023-04-01T05:20:00;6.50;94.90
76838;DHT22;65797;47.352;8.164;2023-04-01T05:22:26;6.50;99.90
76838;DHT22;65797;47.352;8.164;2023-04-01T05:24:52;6.50;99.90
76838;DHT22;65797;47.352;8.164;2023-04-01T05:27:18;6.50;99.90
76838;DHT22;65797;47.352;8.164;2023-04-01T05:29:44;6.50;99.90
76838;DHT22;65797;47.352;8.164;2023-04-01T05:32:09;6.50;1.00
76838;DHT22;65797;47.352;8.164;2023-04-01T05:34:35;6.50;99.90
76838;DHT22;65797;47.352;8.164;2023-04-01T05:49:58;6.60;99.90
76838;DHT22;65797;47.352;8.164;2023-04-01T05:52:24;6.60;99.90
76838;DHT22;65797;47.352;8.164;2023-04-01T05:54:50;6.60;99.90
76838;DHT22;65797;47.352;8.164;2023-04-01T05:57:15;6.70;99.90
76838;DHT22;65797;47.352;8.164;2023-04-01T05:59:41;6.70;99.90
76838;DHT22;65797;47.352;8.164;2023-04-01T06:02:08;6.70;99.90
76838;DHT22;65797;47.352;8.164;2023-04-01T07:03:39;7.20;99.90
76838;DHT22;65797;47.352;8.164;2023-04-01T07:06:40;7.20;99.90
76838;DHT22;65797;47.352;8.164;2023-04-01T07:09:14;7.20;99.90
76838;DHT22;65797;47.352;8.164;2023-04-01T07:11:42;7.00;99.90
76838;DHT22;65797;47.352;8.164;2023-04-01T09:00:57;7.60;1.00
76838;DHT22;65797;47.352;8.164;2023-04-01T09:06:33;7.70;99.90
76838;DHT22;65797;47.352;8.164;2023-04-01T09:14:54;7.70;99.90
76838;DHT22;65797;47.352;8.164;2023-04-01T09:17:42;7.80;99.90
76838;DHT22;65797;47.352;8.164;2023-04-01T09:49:20;8.20;99.90
76838;DHT22;65797;47.352;8.164;2023-04-01T10:06:45;8.30;99.90
76838;DHT22;65797;47.352;8.164;2023-04-01T10:15:10;8.50;99.90
76838;DHT22;65797;47.352;8.164;2023-04-01T10:21:25;8.50;74.00
76838;DHT22;65797;47.352;8.164;2023-04-01T10:24:51;8.40;99.90
76838;DHT22;65797;47.352;8.164;2023-04-01T10:29:54;8.50;99.90
76838;DHT22;65797;47.352;8.164;2023-04-01T10:38:09;8.50;99.90
76838;DHT22;65797;47.352;8.164;2023-04-01T10:40:44;8.50;99.90
76838;DHT22;65797;47.352;8.164;2023-04-01T10:43:52;8.60;99.90
76838;DHT22;65797;47.352;8.164;2023-04-01T11:08:46;8.80;70.90
76838;DHT22;65797;47.352;8.164;2023-04-01T11:14:13;8.80;40.00
76838;DHT22;65797;47.352;8.164;2023-04-01T11:28:35;8.70;90.40
76838;DHT22;65797;47.352;8.164;2023-04-01T11:37:18;8.90;1.00
76838;DHT22;65797;47.352;8.164;2023-04-01T11:48:56;9.40;1.00
76838;DHT22;65797;47.352;8.164;2023-04-01T12:02:34;9.50;1.00
76838;DHT22;65797;47.352;8.164;2023-04-01T12:05:23;9.50;1.00
76838;DHT22;65797;47.352;8.164;2023-04-01T12:10:33;9.30;1.00
76838;DHT22;65797;47.352;8.164;2023-04-01T12:16:13;9.60;1.00
76838;DHT22;65797;47.352;8.164;2023-04-01T12:18:47;9.80;1.00
76838;DHT22;65797;47.352;8.164;2023-04-01T12:21:25;9.80;1.00
76838;DHT22;65797;47.352;8.164;2023-04-01T13:04:56;11.20;99.90
76838;DHT22;65797;47.352;8.164;2023-04-01T13:10:24;11.30;99.90
76838;DHT22;65797;47.352;8.164;2023-04-01T13:13:05;11.20;99.90
76838;DHT22;65797;47.352;8.164;2023-04-01T13:15:44;11.10;99.90
76838;DHT22;65797;47.352;8.164;2023-04-01T13:28:59;11.00;99.90
76838;DHT22;65797;47.352;8.164;2023-04-01T13:42:38;11.40;99.90
76838;DHT22;65797;47.352;8.164;2023-04-01T13:45:26;11.60;99.90
76838;DHT22;65797;47.352;8.164;2023-04-01T13:53:56;11.50;99.90
76838;DHT22;65797;47.352;8.164;2023-04-01T14:11:20;10.90;99.90
76838;DHT22;65797;47.352;8.164;2023-04-01T14:19:51;10.40;1.00
76838;DHT22;65797;47.352;8.164;2023-04-01T14:25:10;10.10;1.00
76838;DHT22;65797;47.352;8.164;2023-04-01T14:33:31;10.00;1.00
76838;DHT22;65797;47.352;8.164;2023-04-01T14:39:15;10.00;1.00
76838;DHT22;65797;47.352;8.164;2023-04-01T14:42:21;9.80;1.00
76838;DHT22;65797;47.352;8.164;2023-04-01T14:47:53;9.70;1.00
76838;DHT22;65797;47.352;8.164;2023-04-01T14:50:25;9.70;1.00
76838;DHT22;65797;47.352;8.164;2023-04-01T14:58:12;9.80;1.00
76838;DHT22;65797;47.352;8.164;2023-04-01T15:01:07;9.80;1.00
76838;DHT22;65797;47.352;8.164;2023-04-01T15:06:48;10.10;1.00
76838;DHT22;65797;47.352;8.164;2023-04-01T15:15:39;10.20;1.00
76838;DHT22;65797;47.352;8.164;2023-04-01T15:18:18;10.10;1.00
76838;DHT22;65797;47.352;8.164;2023-04-01T15:27:07;10.00;1.00
76838;DHT22;65797;47.352;8.164;2023-04-01T15:29:37;10.20;1.00
76838;DHT22;65797;47.352;8.164;2023-04-01T15:40:30;10.50;1.00
76838;DHT22;65797;47.352;8.164;2023-04-01T15:54:32;10.30;1.00
76838;DHT22;65797;47.352;8.164;2023-04-01T16:21:51;9.80;99.90
76838;DHT22;65797;47.352;8.164;2023-04-01T16:24:30;9.80;99.90
76838;DHT22;65797;47.352;8.164;2023-04-01T16:27:04;9.80;19.70
76838;DHT22;65797;47.352;8.164;2023-04-01T16:32:21;9.60;1.00
76838;DHT22;65797;47.352;8.164;2023-04-01T16:37:50;9.50;1.00
76838;DHT22;65797;47.352;8.164;2023-04-01T16:43:28;9.60;1.00
76838;DHT22;65797;47.352;8.164;2023-04-01T16:59:47;9.30;1.00
76838;DHT22;65797;47.352;8.164;2023-04-01T17:02:28;9.20;1.00
76838;DHT22;65797;47.352;8.164;2023-04-01T17:05:08;9.20;1.00
76838;DHT22;65797;47.352;8.164;2023-04-01T17:19:13;9.00;99.90
76838;DHT22;65797;47.352;8.164;2023-04-01T17:22:21;9.00;99.90
76838;DHT22;65797;47.352;8.164;2023-04-01T17:53:14;8.60;1.00
76838;DHT22;65797;47.352;8.164;2023-04-01T17:55:49;8.60;1.00
76838;DHT22;65797;47.352;8.164;2023-04-01T17:58:22;8.60;99.90
76838;DHT22;65797;47.352;8.164;2023-04-01T18:11:34;8.40;99.90
76838;DHT22;65797;47.352;8.164;2023-04-01T18:14:31;8.30;99.90
76838;DHT22;65797;47.352;8.164;2023-04-01T18:17:25;8.30;99.90
76838;DHT22;65797;47.352;8.164;2023-04-01T18:20:06;8.30;99.90
76838;DHT22;65797;47.352;8.164;2023-04-01T18:30:32;8.10;99.90
76838;DHT22;65797;47.352;8.164;2023-04-01T18:33:23;8.10;99.90
76838;DHT22;65797;47.352;8.164;2023-04-01T18:38:33;8.10;99.90
76838;DHT22;65797;47.352;8.164;2023-04-01T18:41:13;8.10;99.90
76838;DHT22;65797;47.352;8.164;2023-04-01T18:46:22;8.00;99.90
76838;DHT22;65797;47.352;8.164;2023-04-01T18:51:48;8.00;99.90
76838;DHT22;65797;47.352;8.164;2023-04-01T18:54:31;8.00;99.90
76838;DHT22;65797;47.352;8.164;2023-04-01T18:57:23;7.90;99.90
76838;DHT22;65797;47.352;8.164;2023-04-01T19:02:45;8.00;99.90
76838;DHT22;65797;47.352;8.164;2023-04-01T19:05:18;8.00;99.90
76838;DHT22;65797;47.352;8.164;2023-04-01T19:07:50;8.00;99.90
76838;DHT22;65797;47.352;8.164;2023-04-01T19:15:52;7.90;99.90
76838;DHT22;65797;47.352;8.164;2023-04-01T19:21:21;7.90;99.90
76838;DHT22;65797;47.352;8.164;2023-04-01T19:24:25;7.90;99.90
76838;DHT22;65797;47.352;8.164;2023-04-01T19:46:43;7.50;1.00
76838;DHT22;65797;47.352;8.164;2023-04-01T19:54:56;7.50;1.00
76838;DHT22;65797;47.352;8.164;2023-04-01T20:00:24;7.40;99.90
76838;DHT22;65797;47.352;8.164;2023-04-01T20:05:49;7.50;99.90
76838;DHT22;65797;47.352;8.164;2023-04-01T20:08:42;7.50;99.90
76838;DHT22;65797;47.352;8.164;2023-04-01T20:11:28;7.50;99.90
76838;DHT22;65797;47.352;8.164;2023-04-01T20:16:53;7.40;32.30
76838;DHT22;65797;47.352;8.164;2023-04-01T20:19:58;7.40;1.00
76838;DHT22;65797;47.352;8.164;2023-04-01T20:27:55;7.20;1.00
76838;DHT22;65797;47.352;8.164;2023-04-01T20:36:06;7.20;1.00
76838;DHT22;65797;47.352;8.164;2023-04-01T20:38:58;7.20;1.00
76838;DHT22;65797;47.352;8.164;2023-04-01T20:41:33;7.20;1.00
76838;DHT22;65797;47.352;8.164;2023-04-01T20:44:12;7.10;1.00
76838;DHT22;65797;47.352;8.164;2023-04-01T20:46:53;7.10;1.00
76838;DHT22;65797;47.352;8.164;2023-04-01T20:49:37;7.00;1.00
76838;DHT22;65797;47.352;8.164;2023-04-01T21:08:23;6.80;50.10
76838;DHT22;65797;47.352;8.164;2023-04-01T21:11:05;6.80;99.90
76838;DHT22;65797;47.352;8.164;2023-04-01T21:16:59;6.70;99.90
76838;DHT22;65797;47.352;8.164;2023-04-01T21:25:41;6.50;99.90
76838;DHT22;65797;47.352;8.164;2023-04-01T21:37:44;6.50;99.90
76838;DHT22;65797;47.352;8.164;2023-04-01T21:40:27;6.60;99.90
76838;DHT22;65797;47.352;8.164;2023-04-01T21:43:30;6.60;99.90
76838;DHT22;65797;47.352;8.164;2023-04-01T21:46:03;6.60;99.90
76838;DHT22;65797;47.352;8.164;2023-04-01T21:54:34;6.60;38.10
76838;DHT22;65797;47.352;8.164;2023-04-01T22:00:11;6.60;99.90
76838;DHT22;65797;47.352;8.164;2023-04-01T22:05:30;6.70;36.80
76838;DHT22;65797;47.352;8.164;2023-04-01T22:14:24;6.70;6.30
76838;DHT22;65797;47.352;8.164;2023-04-01T22:19:13;6.70;37.40
76838;DHT22;65797;47.352;8.164;2023-04-01T22:24:40;6.80;70.70
76838;DHT22;65797;47.352;8.164;2023-04-01T22:35:31;6.80;99.90
76838;DHT22;65797;47.352;8.164;2023-04-01T22:41:04;6.80;99.90
76838;DHT22;65797;47.352;8.164;2023-04-01T22:43:42;6.90;99.90
76838;DHT22;65797;47.352;8.164;2023-04-01T22:49:11;6.80;99.90
76838;DHT22;65797;47.352;8.164;2023-04-01T22:52:11;6.80;99.90
76838;DHT22;65797;47.352;8.164;2023-04-01T23:03:11;6.80;99.90
76838;DHT22;65797;47.352;8.164;2023-04-01T23:05:56;6.80;99.90
76838;DHT22;65797;47.352;8.164;2023-04-01T23:28:54;6.80;99.90
76838;DHT22;65797;47.352;8.164;2023-04-01T23:33:57;6.80;1.00
76838;DHT22;65797;47.352;8.164;2023-04-01T23:36:24;6.80;99.90
76838;DHT22;65797;47.352;8.164;2023-04-01T23:38:51;6.80;99.90
76838;DHT22;65797;47.352;8.164;2023-04-01T23:41:23;6.80;1.00
76838;DHT22;65797;47.352;8.164;2023-04-01T23:49:01;6.70;1.00
76838;DHT22;65797;47.352;8.164;2023-04-01T23:51:29;6.70;1.00
76838;DHT22;65797;47.352;8.164;2023-04-01T23:54:18;6.70;1.00
76838;DHT22;65797;47.352;8.164;2023-04-01T23:56:51;6.70;1.00
76838;DHT22;65797;47.352;8.164;2023-04-01T23:59:23;6.70;13.30
